Latest Coastal Weather Observations for Arlington Reef

IDQ60701

Issued at 10:52 am EST Sunday 26 June 2016 (issued every 10 minutes, with the page automatically refreshed every 10 minutes)

About coastal observations | Map of coastal stations | Coastal observations for QLD | Marine services | Other Formats
Station Details ID: 200879 Name: ARLINGTON REEF Lat: -16.72 Lon: 146.11 Height: 0.0 m
Data from the previous 72 hours. | See also: Recent months at Arlington Reef
Date/Time
EST
Temp
°C
Wind Pressure Rain since
9am
mm
Weather Cloud Vis
km
Sea
Height
m
Swell
Dir  Spd
kts
Gust
kts
hPa Trend Height
m
Period
s
Dir
26/10:30am - E 12 14 1015.5 - - - - - - - - -
26/10:00am - E 5 9 1015.7 - - - - - - - - -
26/09:30am - S 11 14 1015.7 - - - - - - - - -
26/09:00am - SSE 12 17 1015.6 - - - - - - - - -
26/08:30am - S 14 18 1015.5 - - - - - - - - -
26/08:00am - S 14 21 1015.2 - - - - - - - - -
26/07:30am - S 14 17 1015.0 - - - - - - - - -
26/07:00am - S 13 16 1014.7 - - - - - - - - -
26/06:30am - SE 12 14 1014.6 - - - - - - - - -
26/06:00am - ESE 11 14 1014.2 - - - - - - - - -
26/05:30am - E 11 14 1013.9 - - - - - - - - -
26/05:00am - E 12 15 1013.8 - - - - - - - - -
26/04:30am - E 12 15 1013.6 - - - - - - - - -
26/04:00am - E 14 17 1013.2 - - - - - - - - -
26/03:30am - E 15 17 1013.3 - - - - - - - - -
26/03:00am - E 15 18 1013.3 - - - - - - - - -
26/02:30am - ESE 14 17 1013.4 - - - - - - - - -
26/02:00am - S 13 17 1013.7 - - - - - - - - -
26/01:30am - SSW 14 17 1014.1 - - - - - - - - -
26/01:00am - S 15 20 1014.3 - - - - - - - - -
26/12:30am - S 16 20 1014.5 - - - - - - - - -
26/12:00am - S 17 20 1014.8 - - - - - - - - -
 
Date/Time
EST
Temp
°C
Wind Pressure Rain since
9am
mm
Weather Cloud Vis
km
Sea
Height
m
Swell
Dir  Spd
kts
Gust
kts
hPa Trend Height
m
Period
s
Dir
25/11:30pm - S 19 23 1015.1 - - - - - - - - -
25/11:00pm - S 17 20 1015.1 - - - - - - - - -
25/10:30pm - S 18 21 1015.4 - - - - - - - - -
25/10:00pm - S 19 22 1015.4 - - - - - - - - -
25/09:30pm - S 19 21 1015.5 - - - - - - - - -
25/09:00pm - S 19 23 1015.3 - - - - - - - - -
25/08:30pm - S 20 22 1015.1 - - - - - - - - -
25/08:00pm - S 20 23 1014.9 - - - - - - - - -
25/07:30pm - SSE 20 23 1014.7 - - - - - - - - -
25/07:00pm - SSE 17 20 1014.5 - - - - - - - - -
25/06:30pm - SSE 19 22 1014.3 - - - - - - - - -
25/06:00pm - SSE 19 23 1014.3 - - - - - - - - -
25/05:30pm - SSE 20 23 1014.0 - - - - - - - - -
25/05:00pm - SSE 21 24 1013.9 - - - - - - - - -
25/04:30pm - SSE 21 25 1013.7 - - - - - - - - -
25/04:00pm - SSE 21 24 1013.4 - - - - - - - - -
25/03:30pm - S 22 25 1013.6 - - - - - - - - -
25/03:00pm - S 22 25 1013.5 - - - - - - - - -
25/02:30pm - S 21 25 1013.8 - - - - - - - - -
25/02:00pm - SSE 21 24 1014.1 - - - - - - - - -
25/01:30pm - S 20 24 1014.4 - - - - - - - - -
25/01:00pm - SSE 20 24 1014.8 - - - - - - - - -
25/12:30pm - SSE 21 25 1015.2 - - - - - - - - -
25/12:00pm - SSE 21 25 1015.5 - - - - - - - - -
25/11:30am - SSE 21 24 1015.9 - - - - - - - - -
25/11:00am - SSE 21 25 1016.0 - - - - - - - - -
25/10:30am - SSE 20 23 1016.0 - - - - - - - - -
25/10:00am - SSE 20 24 1015.9 - - - - - - - - -
25/09:30am - SSE 21 25 1015.9 - - - - - - - - -
25/09:00am - SSE 20 23 1015.5 - - - - - - - - -
25/08:30am - S 19 23 1015.1 - - - - - - - - -
25/08:00am - S 15 17 1014.9 - - - - - - - - -
25/07:30am - SSE 12 17 1014.6 - - - - - - - - -
25/07:00am - SSE 12 14 1014.4 - - - - - - - - -
25/06:30am - SSE 13 15 1014.0 - - - - - - - - -
25/06:00am - SE 14 16 1013.8 - - - - - - - - -
25/05:30am - SSE 12 14 1013.8 - - - - - - - - -
25/05:00am - SSE 10 13 1013.7 - - - - - - - - -
25/04:30am - SE 11 13 1013.6 - - - - - - - - -
25/04:00am - SE 11 13 1013.4 - - - - - - - - -
25/03:30am - SE 11 13 1013.4 - - - - - - - - -
25/03:00am - SE 10 12 1013.5 - - - - - - - - -
25/02:30am - SE 9 10 1013.4 - - - - - - - - -
25/02:00am - SE 9 10 1013.7 - - - - - - - - -
25/01:30am - SE 9 10 1013.9 - - - - - - - - -
25/01:00am - SE 8 9 1014.1 - - - - - - - - -
25/12:30am - SE 7 9 1014.2 - - - - - - - - -
25/12:00am - ESE 8 10 1014.3 - - - - - - - - -
 
Date/Time
EST
Temp
°C
Wind Pressure Rain since
9am
mm
Weather Cloud Vis
km
Sea
Height
m
Swell
Dir  Spd
kts
Gust
kts
hPa Trend Height
m
Period
s
Dir
24/11:30pm - ESE 7 8 1014.6 - - - - - - - - -
24/11:00pm - ESE 8 9 1014.7 - - - - - - - - -
24/10:30pm - ESE 8 9 1014.6 - - - - - - - - -
24/10:00pm - ESE 8 10 1014.7 - - - - - - - - -
24/09:30pm - ESE 8 10 1014.6 - - - - - - - - -
24/09:00pm - ESE 8 9 1014.5 - - - - - - - - -
24/08:30pm - ESE 7 8 1014.4 - - - - - - - - -
24/08:00pm - ESE 8 10 1014.3 - - - - - - - - -
24/07:30pm - ESE 9 10 1013.9 - - - - - - - - -
24/07:00pm - E 8 10 1013.8 - - - - - - - - -
24/06:30pm - E 8 9 1013.3 - - - - - - - - -
24/06:00pm - E 7 8 1013.0 - - - - - - - - -
24/05:30pm - SE 9 10 1012.8 - - - - - - - - -
24/05:00pm - SE 9 10 1012.7 - - - - - - - - -
24/04:30pm - ESE 8 9 1012.5 - - - - - - - - -
24/04:00pm - ESE 8 8 1012.1 - - - - - - - - -
24/03:30pm - SE 8 9 1012.2 - - - - - - - - -
24/03:00pm - SE 8 9 1012.0 - - - - - - - - -
24/02:30pm - SE 7 8 1012.2 - - - - - - - - -
24/02:00pm - SE 9 10 1012.6 - - - - - - - - -
24/01:30pm - SSE 9 11 1013.1 - - - - - - - - -
24/01:00pm - SSE 11 13 1013.3 - - - - - - - - -
24/12:30pm - S 10 12 1013.7 - - - - - - - - -
24/12:00pm - S 9 10 1014.1 - - - - - - - - -
24/11:30am - SSE 7 8 1014.4 - - - - - - - - -
24/11:00am - S 7 8 1014.7 - - - - - - - - -
24/10:30am - S 8 9 1014.9 - - - - - - - - -
24/10:00am - S 10 11 1015.0 - - - - - - - - -
24/09:30am - S 9 11 1014.9 - - - - - - - - -
24/09:00am - S 8 9 1014.7 - - - - - - - - -
24/08:30am - SSE 7 8 1014.6 - - - - - - - - -
24/08:00am - S 9 10 1014.3 - - - - - - - - -
24/07:30am - S 8 9 1013.8 - - - - - - - - -
24/07:00am - S 8 10 1013.4 - - - - - - - - -
24/06:30am - S 8 9 1013.0 - - - - - - - - -
24/06:00am - S 9 10 1012.7 - - - - - - - - -
24/05:30am - S 9 11 1012.6 - - - - - - - - -
24/05:00am - S 10 12 1012.4 - - - - - - - - -
24/04:30am - S 10 12 1012.3 - - - - - - - - -
24/04:00am - S 8 9 1012.3 - - - - - - - - -
24/03:30am - S 8 9 1012.2 - - - - - - - - -
24/03:00am - S 9 11 1012.4 - - - - - - - - -
24/02:30am - SSW 10 11 1012.5 - - - - - - - - -
24/02:00am - S 9 10 1012.7 - - - - - - - - -
24/01:30am - S 8 10 1012.8 - - - - - - - - -
24/01:00am - S 9 10 1013.2 - - - - - - - - -
24/12:30am - SSE 9 10 1013.4 - - - - - - - - -
24/12:00am - S 10 11 1013.4 - - - - - - - - -
 
Date/Time
EST
Temp
°C
Wind Pressure Rain since
9am
mm
Weather Cloud Vis
km
Sea
Height
m
Swell
Dir  Spd
kts
Gust
kts
hPa Trend Height
m
Period
s
Dir
23/11:30pm - S 9 11 1013.3 - - - - - - - - -
23/11:00pm - S 8 9 1013.6 - - - - - - - - -
23/10:30pm - S 8 10 1013.6 - - - - - - - - -
23/10:00pm - S 7 8 1013.6 - - - - - - - - -
23/09:30pm - S 8 9 1013.4 - - - - - - - - -
23/09:00pm - SSE 6 7 1013.3 - - - - - - - - -
23/08:30pm - SSE 7 8 1013.3 - - - - - - - - -
23/08:00pm - SSE 7 8 1013.0 - - - - - - - - -
23/07:30pm - SSE 6 7 1012.4 - - - - - - - - -
23/07:00pm - SE 6 7 1012.4 - - - - - - - - -
23/06:30pm - SE 7 9 1012.0 - - - - - - - - -
23/06:00pm - ESE 9 11 1011.8 - - - - - - - - -
23/05:30pm - E 13 14 1011.7 - - - - - - - - -
23/05:00pm - E 14 16 1011.6 - - - - - - - - -
23/04:30pm - E 18 21 1011.3 - - - - - - - - -
23/04:00pm - S 12 13 1011.3 - - - - - - - - -
23/03:30pm - S 14 16 1011.1 - - - - - - - - -
23/03:00pm - S 14 15 1011.1 - - - - - - - - -
23/02:30pm - S 14 16 1011.0 - - - - - - - - -
23/02:00pm - S 12 14 1011.5 - - - - - - - - -
23/01:30pm - S 13 15 1011.9 - - - - - - - - -
23/01:00pm - S 14 17 1012.2 - - - - - - - - -
23/12:30pm - S 15 16 1012.5 - - - - - - - - -
23/12:00pm - S 14 16 1012.9 - - - - - - - - -
23/11:30am - S 13 16 1013.3 - - - - - - - - -
23/11:00am - S 16 18 1013.5 - - - - - - - - -

Other Formats:

Comma delimited format used in spreadsheet applications
http://www.bom.gov.au/fwo/IDQ60701/IDQ60701.94284.axf

JavaScript Object Notation format (JSON) in row-major order
http://www.bom.gov.au/fwo/IDQ60701/IDQ60701.94284.json